Terminal Aerodrome Forecast
Issued by NWS

Home | Current Version | Previous Version | Text Only | Print | Product List | Glossary On
Versions: 1 2 3 4 5 6 7 8 9 10 11 12 13
450
FTUS41 KLWX 251738
TAFMTN
TAF
KMTN 251738Z 2518/2618 13008KT P6SM SCT050
     FM252000 16008KT P6SM VCTS BKN060CB
     FM260000 31008KT P6SM VCTS BKN060CB
     FM260200 25005KT P6SM BKN060
     FM261400 32006KT P6SM SCT050 BKN150=

USA.gov is the U.S. government's official web portal to all federal, state and local government web resources and services.